Ainsworth, NE

5:49 AM CDT on June 25, 2017 (GMT -0500)
Ainsworth Municipal

Weather History for KANW - October, 2012

Change the Weather History Date:

Wednesday, October 31, 2012

  Actual Average Record
Temperature  
Mean Temperature 54 °F -  
Max Temperature 72 °F 50 °F 81 °F (2016)
Min Temperature 36 °F 30 °F 8 °F (2002)
Degree Days  
Heating Degree Days 12    
Growing Degree Days 4 (Base 50)    
Moisture  
Dew Point 35 °F    
Average Humidity 58    
Maximum Humidity 90    
Minimum Humidity 21    
Precipitation  
Precipitation 0.00 in - - ()
Sea Level Pressure  
Sea Level Pressure 30.00 in    
Wind  
Wind Speed 5 mph (West)    
Max Wind Speed 13 mph    
Max Gust Speed 18 mph    
Visibility 10 miles    
Events      
Averages and records for this station are not official NWS values.
T = Trace of Precipitation, MM = Missing Value Source: NWS Daily Summary

Daily Weather History Graph

Daily Weather History Graph

Search for Another Location

Airport or City:

Trip Planner

Search our weather history database for the weather conditions in past years. The results will help you decide how hot, cold, wet, or windy it might be!

Date:

Astronomy

Oct. 31, 2012 Rise Set
Actual Time 8:13 AM CDT 6:33 PM CDT
Civil Twilight 7:43 AM CDT 7:02 PM CDT
Nautical Twilight 7:10 AM CDT 7:35 PM CDT
Astronomical Twilight 6:37 AM CDT 8:08 PM CDT
Moon 7:43 PM CDT (10/31) 9:58 AM CDT (10/31)
Length of Visible Light 11h 18m
Length of Day
10h 20m
Full, 97% of the Moon is Illuminated
Oct 31
Full
Nov 6
Last Quarter
Nov 13
New
Nov 20
First Quarter
Nov 28
Full

Hourly Weather History & Observations

Time (CDT) Temp. Windchill Dew Point Humidity Pressure Visibility Wind Dir Wind Speed Gust Speed Precip Events Conditions
12:15 AM 45.9 °F 42.9 °F 37.8 °F 73% 30.02 in 10.0 mi WSW 5.8 mph - N/A   Mostly Cloudy
12:35 AM 45.9 °F 43.6 °F 37.8 °F 73% 30.02 in 10.0 mi WSW 4.6 mph - N/A   Scattered Clouds
12:55 AM 45.0 °F 43.5 °F 37.4 °F 75% 30.02 in 10.0 mi WSW 3.5 mph - N/A   Scattered Clouds
1:15 AM 44.8 °F 41.6 °F 37.4 °F 75% 30.02 in 10.0 mi WSW 5.8 mph - N/A   Mostly Cloudy
1:35 AM 43.9 °F 40.5 °F 37.0 °F 77% 30.02 in 10.0 mi WSW 5.8 mph - N/A   Scattered Clouds
1:55 AM 43.0 °F 38.8 °F 36.5 °F 78% 30.03 in 10.0 mi West 6.9 mph - N/A   Clear
2:15 AM 43.2 °F - 36.7 °F 78% 30.02 in 10.0 mi Calm Calm - N/A   Clear
2:35 AM 42.6 °F 39.0 °F 36.3 °F 78% 30.03 in 10.0 mi WSW 5.8 mph - N/A   Clear
2:55 AM 42.8 °F 40.1 °F 36.1 °F 77% 30.03 in 10.0 mi West 4.6 mph - N/A   Clear
3:15 AM 41.7 °F - 35.8 °F 79% 30.03 in 10.0 mi Calm Calm - N/A   Clear
3:35 AM 39.9 °F - 34.5 °F 81% 30.02 in 10.0 mi Calm Calm - N/A   Clear
3:55 AM 39.2 °F 37.0 °F 34.9 °F 84% 30.02 in 10.0 mi WSW 3.5 mph - N/A   Clear
4:15 AM 39.2 °F 35.0 °F 35.6 °F 87% 30.01 in 10.0 mi WSW 5.8 mph - N/A   Clear
4:35 AM 41.0 °F 36.4 °F 35.8 °F 82% 30.01 in 10.0 mi WSW 6.9 mph - N/A   Clear
4:55 AM 41.5 °F 37.1 °F 35.8 °F 80% 30.00 in 10.0 mi WSW 6.9 mph - N/A   Clear
5:15 AM 41.9 °F 36.9 °F 36.5 °F 81% 29.99 in 10.0 mi WSW 8.1 mph - N/A   Clear
5:35 AM 42.1 °F 37.7 °F 36.5 °F 81% 29.99 in 10.0 mi WSW 6.9 mph - N/A   Clear
5:55 AM 40.3 °F 38.2 °F 35.6 °F 83% 30.00 in 10.0 mi West 3.5 mph - N/A   Clear
6:15 AM 40.3 °F - 35.4 °F 83% 29.99 in 10.0 mi Calm Calm - N/A   Clear
6:35 AM 39.7 °F 37.6 °F 35.2 °F 84% 30.00 in 10.0 mi West 3.5 mph - N/A   Clear
6:55 AM 38.3 °F 35.9 °F 34.9 °F 87% 30.01 in 10.0 mi WSW 3.5 mph - N/A   Clear
7:15 AM 38.1 °F 33.7 °F 34.7 °F 87% 30.01 in 10.0 mi WSW 5.8 mph - N/A   Clear
7:35 AM 36.7 °F 32.9 °F 34.0 °F 90% 30.01 in 10.0 mi SW 4.6 mph - N/A   Clear
7:55 AM 37.6 °F - 34.9 °F 90% 30.01 in 10.0 mi Calm Calm - N/A   Clear
8:15 AM 37.9 °F 34.4 °F 34.9 °F 89% 30.01 in 10.0 mi WSW 4.6 mph - N/A   Clear
8:35 AM 37.6 °F 33.1 °F 34.9 °F 90% 30.01 in 10.0 mi West 5.8 mph - N/A   Clear
8:55 AM 39.6 °F 35.4 °F 36.1 °F 88% 30.02 in 10.0 mi West 5.8 mph - N/A   Clear
9:15 AM 42.1 °F 37.7 °F 37.6 °F 84% 30.03 in 10.0 mi West 6.9 mph - N/A   Clear
9:35 AM 44.8 °F - 39.4 °F 81% 30.03 in 10.0 mi Calm Calm - N/A   Clear
9:55 AM 47.3 °F - 39.9 °F 76% 30.04 in 10.0 mi WNW 5.8 mph - N/A   Clear
10:15 AM 48.7 °F - 40.6 °F 74% 30.04 in 10.0 mi WNW 3.5 mph - N/A   Clear
10:35 AM 51.3 °F - 41.4 °F 69% 30.04 in 10.0 mi WNW 4.6 mph - N/A   Clear
10:55 AM 54.1 °F - 41.5 °F 62% 30.04 in 10.0 mi WNW 8.1 mph - N/A   Clear
11:15 AM 56.5 °F - 41.9 °F 58% 30.04 in 10.0 mi WNW 6.9 mph - N/A   Clear
11:35 AM 59.0 °F - 41.5 °F 52% 30.03 in 10.0 mi WNW 4.6 mph - N/A   Clear
11:55 AM 61.2 °F - 40.6 °F 47% 30.03 in 10.0 mi West 4.6 mph - N/A   Clear
12:15 PM 62.8 °F - 40.3 °F 44% 30.03 in 10.0 mi West 5.8 mph - N/A   Clear
12:35 PM 63.1 °F - 39.6 °F 42% 30.03 in 10.0 mi West 6.9 mph - N/A   Clear
12:55 PM 64.9 °F - 38.5 °F 38% 30.02 in 10.0 mi West 5.8 mph - N/A   Clear
1:15 PM 65.5 °F - 38.5 °F 37% 30.01 in 10.0 mi West 6.9 mph - N/A   Clear
1:35 PM 66.2 °F - 37.4 °F 35% 30.00 in 10.0 mi West 4.6 mph - N/A   Clear
1:55 PM 68.0 °F - 36.9 °F 32% 29.99 in 10.0 mi West 9.2 mph - N/A   Clear
2:15 PM 68.9 °F - 35.6 °F 29% 29.97 in 10.0 mi WSW 10.4 mph 18.4 mph N/A   Clear
2:35 PM 70.0 °F - 35.1 °F 28% 29.97 in 10.0 mi WSW 11.5 mph - N/A   Clear
2:55 PM 70.9 °F - 33.8 °F 26% 29.97 in 10.0 mi WNW 11.5 mph - N/A   Clear
3:15 PM 71.1 °F - 32.7 °F 24% 29.97 in 10.0 mi WNW 11.5 mph 16.1 mph N/A   Clear
3:35 PM 71.8 °F - 32.2 °F 23% 29.97 in 10.0 mi West 9.2 mph - N/A   Clear
3:55 PM 71.8 °F - 30.9 °F 22% 29.97 in 10.0 mi WNW 8.1 mph - N/A   Clear
4:15 PM 71.4 °F - 29.1 °F 21% 29.97 in 10.0 mi NNW 10.4 mph - N/A   Clear
4:35 PM 71.6 °F - 28.9 °F 21% 29.97 in 10.0 mi NW 8.1 mph - N/A   Mostly Cloudy
4:55 PM 71.1 °F - 28.6 °F 21% 29.97 in 10.0 mi NW 8.1 mph - N/A   Overcast
5:15 PM 70.2 °F - 29.5 °F 22% 29.97 in 10.0 mi NW 6.9 mph - N/A   Overcast
5:35 PM 69.3 °F - 30.7 °F 24% 29.97 in 10.0 mi NNW 3.5 mph - N/A   Overcast
5:55 PM 68.9 °F - 30.9 °F 24% 29.97 in 10.0 mi Calm Calm - N/A   Overcast
6:15 PM 66.9 °F - 31.5 °F 27% 29.97 in 7.0 mi Calm Calm - N/A   Mostly Cloudy
6:35 PM 62.6 °F - 32.0 °F 32% 29.97 in 10.0 mi Calm Calm - N/A   Mostly Cloudy
6:55 PM 57.7 °F - 34.2 °F 41% 29.97 in 10.0 mi Calm Calm - N/A   Scattered Clouds
7:15 PM 57.7 °F - 33.8 °F 41% 29.97 in 10.0 mi Calm Calm - N/A   Clear
7:35 PM 52.7 °F - 34.7 °F 50% 29.97 in 10.0 mi Calm Calm - N/A   Clear
7:55 PM 52.7 °F - 34.3 °F 50% 29.98 in 10.0 mi Calm Calm - N/A   Clear
8:15 PM 50.0 °F - 34.7 °F 56% 29.98 in 10.0 mi SW 3.5 mph - N/A   Clear
8:35 PM 52.2 °F - 34.5 °F 51% 29.99 in 10.0 mi West 12.7 mph - N/A   Clear
8:55 PM 56.7 °F - 32.9 °F 41% 29.99 in 10.0 mi West 10.4 mph - N/A   Clear
9:15 PM 54.3 °F - 33.1 °F 45% 29.99 in 10.0 mi West 6.9 mph - N/A   Clear
9:35 PM 55.9 °F - 32.7 °F 41% 30.00 in 10.0 mi WNW 9.2 mph - N/A   Clear
9:55 PM 57.2 °F - 33.8 °F 41% 30.01 in 10.0 mi NW 10.4 mph - N/A   Clear
10:15 PM 55.9 °F - 33.1 °F 42% 30.01 in 10.0 mi NW 9.2 mph - N/A   Clear
10:35 PM 54.3 °F - 33.1 °F 45% 30.01 in 10.0 mi NW 8.1 mph - N/A   Clear
10:55 PM 52.7 °F - 33.8 °F 49% 30.01 in 10.0 mi NNW 10.4 mph - N/A   Clear
11:15 PM 51.4 °F - 33.6 °F 51% 30.01 in 10.0 mi NW 6.9 mph - N/A   Clear
11:35 PM 48.2 °F - 34.5 °F 59% 30.02 in 10.0 mi West 6.9 mph - N/A   Clear
11:55 PM 50.4 °F - 34.7 °F 55% 30.02 in 10.0 mi WNW 4.6 mph - N/A   Clear